Weather observations for the past three days for
Morganton-Lenoir Airport
Metric (Imperial)
Date Time (edt) Wind (kph) Vis. (km) Weather Sky Cond. Temperature (ºC) Relative Humidity Wind Chill (°C) Heat Index (°C) Pressure Precipitation (cm)
Air Dwpt 6 hour altimeter (cm) sea level (mb) 1 hr 3 hr 6 hr
Max. Min.
04 23:15 Calm 16.09 Fair CLR 12.3 6.6 68% 76.23 0.0
04 22:55 Calm 16.09 Fair CLR 13 6.4 64% 76.23 0.0
04 22:35 Calm 16.09 Fair CLR 14.1 6.5 60% 76.23 0.0
04 22:15 Calm 16.09 Fair CLR 14.1 7.2 63% 76.23 0.0
04 21:55 Calm 16.09 Fair CLR 14.5 6.4 59% 76.23 0.0
04 21:35 Calm 16.09 Fair CLR 15.3 6.4 56% 76.17 0.0
04 21:15 Calm 16.09 Fair CLR 15.5 7.5 59% 76.17 0.0
04 20:55 Calm 16.09 Fair CLR 16 7.4 57% 76.17 0.0
04 20:35 Calm 16.09 Fair CLR 17.6 6.9 50% 76.15 0.0
04 20:15 Calm 16.09 Fair CLR 20 5.7 39% 76.15 0.0
04 19:55 Calm 16.09 Fair CLR 22.1 5.2 33% 76.12 0.0
04 19:35 S 6 16.09 Fair CLR 23.4 4.8 30% 76.12 0.0
04 19:15 S 7 16.09 Fair CLR 24.1 5.4 30% 25 76.12 0.0
04 18:55 S 6 16.09 Fair CLR 24.5 5.4 29% 25 76.1 0.0
04 18:35 S 9 16.09 Fair CLR 24.9 5.2 28% 25 76.1 0.0
04 18:15 S 15 16.09 Fair CLR 25.4 5.1 27% 25 76.1 0.0
04 17:55 S 9 16.09 Fair CLR 26 4.5 25% 26 76.1 0.0
04 17:35 SE 9 16.09 Fair CLR 25.9 4.7 26% 26 76.1 0.0
04 16:55 S 9 16.09 Fair CLR 26.4 5.4 26% 26 76.1 0.0
04 16:35 SE 11 16.09 Fair CLR 26.9 5.4 25% 26 76.12 0.0
04 16:15 SW 13 16.09 Fair CLR 26.4 5.1 26% 26 76.12 0.0
04 15:55 S 9 16.09 Fair CLR 26.6 5.8 26% 26 76.15 0.0
04 15:35 SW 7 16.09 Fair CLR 26.6 5.5 26% 26 76.15 0.0
04 15:15 SW 17 16.09 Fair CLR 26.1 5 26% 26 76.17 0.0
04 14:55 S 9 16.09 Fair CLR 25.6 4.7 26% 26 76.23 0.0
04 14:35 S 13 16.09 Fair CLR 25 4.3 26% 25 76.23 0.0
04 14:15 S 15 16.09 Fair CLR 25.5 5.3 27% 25 76.25 0.0
04 13:55 SE 7 16.09 Fair CLR 24.8 5.3 29% 25 76.28 0.0
04 13:35 SE 7 16.09 Fair CLR 23.8 5.1 30% 76.28 0.0
04 13:15 S 11 16.09 Fair CLR 23.8 5.3 30% 76.28 0.0
04 12:55 S 7 16.09 Fair CLR 23.2 4.9 31% 76.3 0.0
04 12:35 Calm 16.09 Fair CLR 22.1 4.4 32% 76.35 0.0
04 12:15 Calm 16.09 Fair CLR 21.7 4.3 32% 76.35 0.0
04 11:55 SW 6 16.09 Fair CLR 21.1 4.2 33% 76.38 0.0
04 11:35 SW 7 16.09 Fair CLR 21.1 4.6 34% 76.4 0.0
04 11:15 Calm 16.09 Fair CLR 20.7 4.9 36% 76.43 0.0
04 10:55 S 6 16.09 Fair CLR 19.7 3.9 35% 76.43 0.0
04 10:35 S 6 16.09 Fair CLR 19 5.2 40% 76.43 0.0
04 10:15 Calm 16.09 Fair CLR 17.4 5.1 44% 76.43 0.0
04 09:55 Calm 16.09 Fair CLR 16 5.4 50% 76.43 0.0
04 09:35 Calm 16.09 Fair CLR 14.7 5.1 53% 76.43 0.0
04 09:15 Calm 16.09 Fair CLR 12.9 5.7 62% 76.43 0.0
04 08:55 Calm 16.09 Fair CLR 11.8 5.5 66% 76.4 0.0
04 08:35 Calm 16.09 Fair CLR 10.5 6.3 75% 76.4 0.0
04 08:15 Calm 16.09 Fair CLR 9 5.4 78% 76.43 0.0
04 07:55 Calm 16.09 Fair CLR 7.1 4.8 85% 76.4 0.0
04 07:35 Calm 16.09 Fair CLR 5.7 4.5 92% 76.4 0.0
04 07:15 Calm 16.09 Fair CLR 4.4 4.1 98% 76.4 0.0
04 06:55 Calm 16.09 Fair CLR 3.1 2.9 99% 76.38 0.0
04 06:35 Calm 16.09 Fair CLR 2.8 2.6 99% 76.35 0.0
04 06:15 Calm 16.09 Fair CLR 3.3 3 98% 76.38 0.0
04 05:55 Calm 16.09 Fair CLR 2.9 2.7 99% 76.38 0.0
04 05:35 Calm 16.09 Fair CLR 2.8 2.6 99% 76.38 0.0
04 05:15 Calm 16.09 Fair CLR 3.1 2.9 99% 76.38 0.0
04 04:55 Calm 16.09 Fair CLR 3.3 3.1 99% 76.4 0.0
04 04:35 Calm 16.09 Fair CLR 3.5 3.2 98% 76.38 0.0
04 04:15 Calm 16.09 Fair CLR 3.7 3.4 98% 76.35 0.0
04 03:55 Calm 16.09 Fair CLR 4 3.5 97% 76.35 0.0
04 03:35 Calm 16.09 Fair CLR 4.3 3.6 95% 76.35 0.0
04 03:15 Calm 16.09 Fair CLR 4.7 4 95% 76.35 0.0
04 02:55 Calm 16.09 Fair CLR 4.8 4.1 95% 76.38 0.0
04 02:35 Calm 16.09 Fair CLR 5.4 4.5 94% 76.35 0.0
04 02:10 Calm 16.09 Fair CLR 5.9 4.5 91% 76.35 0.0
04 01:55 Calm 16.09 Fair CLR 6.7 4.8 88% 76.38 0.0
04 01:35 Calm 16.09 Fair CLR 6.5 4.9 90% 76.38 0.0
04 01:15 Calm 16.09 Fair CLR 7.3 4.9 85% 76.38 0.0
04 00:55 Calm 16.09 Fair CLR 7.4 4.8 84% 76.38 0.0
04 00:35 Calm 16.09 Fair CLR 7.4 4.9 84% 76.38 0.0
04 00:15 Calm 16.09 Fair CLR 7.5 4.8 83% 76.38 0.0
03 23:55 Calm 16.09 Fair CLR 7.6 5 84% 76.35 0.0
03 23:35 Calm 16.09 Fair CLR 7.9 5 82% 76.35 0.0
03 23:15 Calm 16.09 Fair CLR 8.5 5 79% 76.35 0.0
03 22:55 Calm 16.09 Fair CLR 8.9 4.8 76% 76.38 0.0
03 22:35 Calm 16.09 Fair CLR 9.2 4.9 75% 76.35 0.0
03 22:15 Calm 16.09 Fair CLR 9.7 4.8 72% 76.35 0.0
03 21:55 Calm 16.09 Fair CLR 10.1 5.5 73% 76.35 0.0
03 21:35 Calm 16.09 Fair CLR 10.5 5.1 70% 76.3 0.0
03 21:15 Calm 16.09 Fair CLR 11 4.9 66% 76.3 0.0
03 20:55 Calm 16.09 Fair CLR 11.8 4.8 62% 76.3 0.0
03 20:35 Calm 16.09 Fair CLR 12.7 4.8 59% 76.28 0.0
03 20:15 Calm 16.09 Fair CLR 14.3 4.8 53% 76.25 0.0
03 19:55 Calm 16.09 Fair CLR 17.9 1.5 33% 76.25 0.0
03 19:35 S 6 16.09 Fair CLR 19.4 0.6 29% 76.25 0.0
03 19:15 S 6 16.09 Fair CLR 20.2 -0.2 26% 76.23 0.0
03 18:55 SW 7 16.09 Fair CLR 20.6 -1 24% 76.23 0.0
03 18:35 SW 9 16.09 Fair CLR 21.2 -0.8 23% 76.25 0.0
03 18:15 SW 9 16.09 Fair CLR 21.5 -0.7 23% 76.25 0.0
03 17:55 SW 9 16.09 Fair CLR 21.2 -0.2 24% 76.25 0.0
03 17:35 S 7 16.09 Fair CLR 21 0.9 26% 76.28 0.0
03 17:15 Calm 16.09 Fair CLR 20.9 0.4 26% 76.3 0.0
03 16:55 S 11 16.09 Fair CLR 21.3 0.4 25% 76.3 0.0
03 16:35 S 6 G 26 16.09 Fair CLR 20.5 -1.4 23% 76.33 0.0
03 16:15 S 9 16.09 Fair CLR 20.3 -1.6 23% 76.33 0.0
03 15:55 S 11 16.09 Fair CLR 20.4 -2 22% 76.38 0.0
03 15:35 SE 6 G 15 16.09 Fair CLR 19.5 -3.2 21% 76.38 0.0
03 15:15 S 6 16.09 Fair CLR 19.6 -2.3 23% 76.4 0.0
03 14:55 SE 9 16.09 Fair CLR 19 -3.1 22% 76.43 0.0
03 14:35 S 11 16.09 Fair CLR 19.5 -2.2 23% 76.45 0.0
03 14:15 Calm 16.09 Fair CLR 18.8 -1.3 26% 76.45 0.0
03 13:55 Calm 16.09 Fair CLR 18.1 -1.5 27% 76.48 0.0
03 13:35 SW 7 16.09 Fair CLR 17.6 -1.3 28% 76.5 0.0
03 13:15 W 9 16.09 Fair CLR 17.5 -1.8 27% 76.53 0.0
03 12:50 S 6 16.09 Fair CLR 16.3 -1.5 30% 76.56 0.0
03 12:35 W 6 16.09 Fair CLR 17.4 -0.3 30% 76.58 0.0
03 12:15 W 9 16.09 Fair CLR 15.8 -1.2 31% 76.61 0.0
03 11:50 N 6 16.09 NULL NULL 15.6 -1 32% 76.63 0.0
03 11:35 W 7 16.09 Fair CLR 14.8 -1.3 33% 76.63 0.0
03 11:15 S 6 16.09 Fair CLR 14.5 -0.3 37% 76.63 0.0
03 10:55 W 9 16.09 Fair CLR 13.9 -0.7 37% 76.63 0.0
03 10:35 SW 9 16.09 Fair CLR 13.6 -0.3 39% 76.63 0.0
03 10:15 Calm 16.09 Fair CLR 13.1 -0.4 40% 76.63 0.0
03 09:55 NW 7 16.09 Fair CLR 12.5 -0.3 42% 76.63 0.0
03 09:35 W 6 16.09 Fair CLR 11.8 0.6 46% 76.63 0.0
03 09:15 Calm 16.09 Fair CLR 11.1 1.3 51% 76.63 0.0
03 08:55 W 6 16.09 Fair CLR 10.5 1.8 55% 76.63 0.0
03 08:35 Calm 16.09 Fair CLR 9.7 2.6 62% 76.63 0.0
03 08:15 Calm 16.09 Fair CLR 7.6 4.2 79% 76.61 0.0
03 07:55 SE 6 16.09 Fair CLR 4.3 3 91% 76.61 0.0
03 07:35 Calm 16.09 Fair CLR 2.7 1.9 95% 76.58 0.0
03 07:15 Calm 16.09 Fair CLR 1.5 1.1 97% 76.56 0.0
03 06:35 Calm 16.09 Fair CLR 1.1 0.9 99% 76.53 0.0
03 06:15 Calm 16.09 Fair CLR 1 0.7 98% 76.5 0.0
03 05:55 Calm 16.09 Fair CLR 1 0.7 98% 76.5 0.0
03 05:35 Calm 16.09 Fair CLR 1.2 1 99% 76.48 0.0
03 05:15 Calm 16.09 Fair CLR 1.5 1.1 97% 76.45 0.0
03 04:55 Calm 16.09 Fair CLR 2.1 1.4 95% 76.45 0.0
03 04:35 Calm 16.09 Fair CLR 1.9 1.2 95% 76.43 0.0
03 04:15 Calm 16.09 Fair CLR 2.4 1.6 95% 76.4 0.0
03 03:55 Calm 16.09 Fair CLR 2.4 1.8 96% 76.43 0.0
03 03:35 Calm 16.09 Fair CLR 3 1.9 93% 76.4 0.0
03 03:15 Calm 16.09 Fair CLR 4 2.2 88% 76.38 0.0
03 02:55 Calm 16.09 Fair CLR 2.7 1.8 94% 76.35 0.0
03 02:35 Calm 16.09 Fair CLR 2.5 1.7 95% 76.35 0.0
03 02:15 Calm 16.09 Fair CLR 2.7 2 95% 76.35 0.0
03 01:50 Calm 16.09 Fair CLR 2.8 2 95% 76.35 0.0
03 01:35 Calm 16.09 Fair CLR 3.1 1.9 92% 76.35 0.0
03 01:15 Calm 16.09 Fair CLR 3.4 2.1 91% 76.35 0.0
03 00:55 Calm 16.09 Fair CLR 3.8 2.2 89% 76.35 0.0
03 00:35 Calm 16.09 Fair CLR 4.1 2.7 91% 76.33 0.0
03 00:15 Calm 16.09 Fair CLR 4.2 2.1 86% 76.33 0.0
02 23:55 Calm 16.09 Fair CLR 4.5 2.4 86% 76.3 0.0
02 23:35 Calm 16.09 Fair CLR 5 2.5 84% 76.3 0.0
02 23:15 Calm 16.09 Fair CLR 5.2 2.8 85% 76.3 0.0
02 22:55 Calm 16.09 Fair CLR 5.7 3 83% 76.28 0.0
02 22:35 Calm 16.09 Fair CLR 6.6 3 78% 76.28 0.0
02 22:15 Calm 16.09 Fair CLR 6.8 3 77% 76.25 0.0
02 21:55 Calm 16.09 Fair CLR 7.5 2.8 72% 76.23 0.0
02 21:35 Calm 16.09 Fair CLR 8.2 3 70% 76.23 0.0
02 21:15 Calm 16.09 Fair CLR 9.6 2.7 62% 76.17 0.0
02 20:55 Calm 16.09 Fair CLR 11.8 0.9 47% 76.17 0.0
02 20:35 NW 6 16.09 Fair CLR 13.5 0 40% 76.12 0.0
02 20:15 NW 9 16.09 Partly Cloudy SCT110 14.8 -0.1 36% 76.12 0.0
02 19:55 NW 15 16.09 Partly Cloudy SCT110 15.8 -0.5 33% 76.1 0.0
02 19:35 NW 9 G 26 16.09 Mostly Cloudy BKN100 16.7 -0.1 32% 76.05 0.0
02 19:15 N 11 16.09 Overcast OVC100 16.2 -0.4 32% 76.05 0.0
02 18:55 NW 15 G 30 16.09 Mostly Cloudy BKN100 BKN120 16.6 -0.8 31% 76.05 0.0
02 18:35 NW 19 G 30 16.09 Mostly Cloudy BKN100 17 -0.2 31% 76.02 0.0
02 18:15 NW 13 G 26 16.09 Mostly Cloudy BKN100 17.8 -1.1 28% 76 0.0
02 17:55 NW 13 16.09 Fair CLR 19 -1 26% 75.97 0.0
02 17:35 NW 13 16.09 Partly Cloudy SCT090 18 1.3 33% 75.95 0.0
02 17:15 Calm 16.09 Mostly Cloudy SCT070 SCT080 BKN090 18 2.6 36% 75.95 0.0
02 16:55 SE 7 16.09 Partly Cloudy SCT080 SCT090 18.8 3.3 36% 75.92 0.0
02 16:35 SW 6 16.09 Fair CLR 18.8 3.6 37% 75.92 0.0
02 16:15 S 6 16.09 Fair CLR 19 3.9 37% 75.95 0.0
02 15:55 Calm 16.09 Fair CLR 17.9 3.1 37% 75.97 0.0
02 15:35 Calm 16.09 Fair CLR 17.3 2.9 38% 76 0.0
02 15:15 S 6 16.09 Fair CLR 17.8 2.7 37% 76 0.0
02 14:55 Calm 16.09 Fair CLR 17.1 2.2 37% 76 0.0
02 14:35 S 6 16.09 Fair CLR 17.5 2.4 37% 76.02 0.0
02 14:15 SE 7 16.09 Partly Cloudy SCT075 SCT085 16.6 2.1 38% 76.05 0.0
02 13:55 Calm 16.09 Mostly Cloudy BKN065 BKN085 16.6 2.3 38% 76.05 0.0
02 13:35 Calm 16.09 Mostly Cloudy BKN065 BKN075 15.9 2.1 40% 76.07 0.0
02 13:15 Calm 16.09 Mostly Cloudy BKN055 15.3 2.4 42% 76.1 0.0
02 12:55 Calm 16.09 Partly Cloudy SCT055 SCT090 15 2.7 44% 76.12 0.0
02 12:35 Calm 16.09 Overcast OVC055 14.2 3.8 50% 76.15 0.0
02 12:15 Calm 16.09 Overcast OVC055 13.4 4 53% 76.17 0.0
02 11:55 Calm 16.09 Overcast OVC055 13.6 4.2 53% 76.17 0.0
02 11:35 Calm 16.09 Overcast OVC055 13.5 4.5 55% 76.17 0.0
02 11:15 Calm 16.09 Overcast OVC055 13.5 5.4 58% 76.17 0.0
02 10:55 Calm 16.09 Overcast OVC055 13.2 7.1 67% 76.15 0.0
02 10:35 Calm 16.09 Overcast OVC055 13 7 67% 76.15 0.0
02 10:15 Calm 16.09 Overcast OVC055 13 6.7 66% 76.15 0.0
02 09:55 Calm 16.09 Overcast OVC055 13 7 67% 76.12 0.0
02 09:35 Calm 16.09 Overcast BKN055 OVC065 13.1 7.2 68% 76.15 0.0
02 09:15 Calm 16.09 Overcast SCT060 OVC065 13 7.9 71% 76.12 0.0
02 08:55 Calm 16.09 Overcast OVC060 12.7 7.5 71% 76.12 0.0
02 08:35 Calm 16.09 Overcast SCT055 OVC070 12.5 8.2 75% 76.12 0.0
02 08:15 Calm 16.09 Overcast SCT055 OVC070 12.3 7.6 73% 76.12 0.0
02 07:55 Calm 16.09 Overcast BKN070 OVC080 12.1 8.2 77% 76.07 0.0
02 07:35 Calm 16.09 Mostly Cloudy BKN070 12 9 82% 76.1 0.0
02 07:15 Calm 16.09 Mostly Cloudy BKN075 12 9.2 83% 76.07 0.0
02 06:55 Calm 16.09 Overcast OVC075 11.2 10.1 93% 76.07 0.0
02 06:35 Calm 16.09 Mostly Cloudy BKN075 11.5 9.9 90% 76.05 0.0
02 06:15 Calm 16.09 Overcast OVC075 11.4 9.9 91% 76.05 0.0
02 05:55 Calm 16.09 Mostly Cloudy BKN075 11.4 9.7 89% 76.05 0.0
02 05:35 Calm 16.09 Mostly Cloudy BKN075 BKN120 11.3 9.7 90% 76.05 0.0
02 05:15 Calm 16.09 Mostly Cloudy SCT075 BKN120 11.6 9.6 88% 76.07 0.0
02 04:55 Calm 16.09 Mostly Cloudy SCT075 BKN110 11.6 9.7 88% 76.1 0.0
02 04:35 Calm 16.09 Mostly Cloudy SCT075 BKN120 12.1 9.7 85% 76.07 0.0
02 04:15 Calm 16.09 Overcast SCT075 OVC120 12.4 9.4 82% 76.05 0.0
02 03:55 Calm 16.09 Mostly Cloudy BKN075 BKN120 12.7 9.2 79% 76.05 0.0
02 03:35 Calm 16.09 Mostly Cloudy BKN075 BKN120 12.8 8.9 77% 76.02 0.0
02 03:15 Calm 16.09 Mostly Cloudy BKN075 13.5 8.3 71% 76.02 0.0
02 02:55 Calm 16.09 Partly Cloudy SCT075 13.5 8.2 71% 76 0.0
02 02:35 Calm 16.09 Fair CLR 12.9 9.5 80% 76.02 0.0
02 02:15 Calm 16.09 Fair CLR 12.5 10 85% 76.05 0.0
02 01:55 Calm 16.09 Fair CLR 12.4 10.1 86% 76.05 0.0
02 01:35 Calm 16.09 Fair CLR 12.3 10 86% 76.07 0.0
02 01:15 Calm 16.09 Fair CLR 11.6 10 90% 76.05 0.0
02 00:55 Calm 16.09 Fair CLR 11.7 10.1 90% 76.05 0.0
02 00:35 Calm 16.09 Fair CLR 11.3 9.8 91% 76.05 0.0
02 00:15 Calm 16.09 Fair CLR 11.5 9.8 89% 76.05 0.0
01 23:55 Calm 16.09 Fair CLR 11.5 9.7 89% 76.05 0.0
01 23:35 Calm 16.09 Fair CLR 11.6 9.7 88% 76.07 0.0
Date Time (edt) Wind (kph) Vis. (km) Weather Sky Cond. Air Dwpt Max. Min. Relative Humidity Wind Chill (°C) Heat Index (°C) altimeter (cm) sea level (mb) 1 hr 3 hr 6 hr
6 hour
Temperature (ºC) Pressure Precipitation (cm)